sensor_id;sensor_type;location;lat;lon;timestamp;P1;durP1;ratioP1;P2;durP2;ratioP2
53299;SDS011;39187;48.476;8.310;2024-02-16T00:01:59;1.00;;;0.80;;
53299;SDS011;39187;48.476;8.310;2024-02-16T00:04:26;1.00;;;0.93;;
53299;SDS011;39187;48.476;8.310;2024-02-16T00:06:52;0.77;;;0.60;;
53299;SDS011;39187;48.476;8.310;2024-02-16T00:09:18;0.70;;;0.70;;
53299;SDS011;39187;48.476;8.310;2024-02-16T00:11:43;0.77;;;0.77;;
53299;SDS011;39187;48.476;8.310;2024-02-16T00:14:10;0.90;;;0.90;;
53299;SDS011;39187;48.476;8.310;2024-02-16T00:16:35;2.83;;;0.90;;
53299;SDS011;39187;48.476;8.310;2024-02-16T00:19:01;1.10;;;1.00;;
53299;SDS011;39187;48.476;8.310;2024-02-16T00:21:26;1.77;;;0.70;;
53299;SDS011;39187;48.476;8.310;2024-02-16T00:23:52;0.80;;;0.80;;
53299;SDS011;39187;48.476;8.310;2024-02-16T00:26:18;0.97;;;0.80;;
53299;SDS011;39187;48.476;8.310;2024-02-16T00:28:44;1.00;;;1.00;;
53299;SDS011;39187;48.476;8.310;2024-02-16T00:31:09;0.97;;;0.80;;
53299;SDS011;39187;48.476;8.310;2024-02-16T00:33:35;1.27;;;1.17;;
53299;SDS011;39187;48.476;8.310;2024-02-16T00:36:00;1.07;;;1.03;;
53299;SDS011;39187;48.476;8.310;2024-02-16T00:38:26;1.73;;;0.90;;
53299;SDS011;39187;48.476;8.310;2024-02-16T00:40:51;1.27;;;1.20;;
53299;SDS011;39187;48.476;8.310;2024-02-16T00:43:17;0.80;;;0.80;;
53299;SDS011;39187;48.476;8.310;2024-02-16T00:45:43;1.10;;;1.03;;
53299;SDS011;39187;48.476;8.310;2024-02-16T00:48:10;1.30;;;0.83;;
53299;SDS011;39187;48.476;8.310;2024-02-16T00:50:35;0.80;;;0.80;;
53299;SDS011;39187;48.476;8.310;2024-02-16T00:53:01;1.30;;;1.20;;
53299;SDS011;39187;48.476;8.310;2024-02-16T00:55:27;2.50;;;0.90;;
53299;SDS011;39187;48.476;8.310;2024-02-16T00:57:52;1.00;;;0.90;;
53299;SDS011;39187;48.476;8.310;2024-02-16T01:00:18;0.93;;;0.90;;
53299;SDS011;39187;48.476;8.310;2024-02-16T01:02:45;1.27;;;1.00;;
53299;SDS011;39187;48.476;8.310;2024-02-16T01:05:10;1.50;;;1.30;;
53299;SDS011;39187;48.476;8.310;2024-02-16T01:07:36;1.23;;;0.83;;
53299;SDS011;39187;48.476;8.310;2024-02-16T01:10:02;0.80;;;0.80;;
53299;SDS011;39187;48.476;8.310;2024-02-16T01:12:28;1.13;;;1.03;;
53299;SDS011;39187;48.476;8.310;2024-02-16T01:14:56;1.13;;;1.03;;
53299;SDS011;39187;48.476;8.310;2024-02-16T01:17:21;3.70;;;1.00;;
53299;SDS011;39187;48.476;8.310;2024-02-16T01:19:47;1.20;;;1.10;;
53299;SDS011;39187;48.476;8.310;2024-02-16T01:22:12;1.43;;;1.10;;
53299;SDS011;39187;48.476;8.310;2024-02-16T01:24:38;0.80;;;0.80;;
53299;SDS011;39187;48.476;8.310;2024-02-16T01:27:03;1.10;;;0.87;;
53299;SDS011;39187;48.476;8.310;2024-02-16T01:29:29;2.77;;;1.10;;
53299;SDS011;39187;48.476;8.310;2024-02-16T01:31:54;1.03;;;1.00;;
53299;SDS011;39187;48.476;8.310;2024-02-16T01:34:20;2.07;;;0.80;;
53299;SDS011;39187;48.476;8.310;2024-02-16T01:36:46;0.90;;;0.80;;
53299;SDS011;39187;48.476;8.310;2024-02-16T01:39:11;1.00;;;1.00;;
53299;SDS011;39187;48.476;8.310;2024-02-16T01:41:39;1.10;;;0.90;;
53299;SDS011;39187;48.476;8.310;2024-02-16T01:44:05;1.17;;;1.07;;
53299;SDS011;39187;48.476;8.310;2024-02-16T01:46:31;1.37;;;0.83;;
53299;SDS011;39187;48.476;8.310;2024-02-16T01:48:58;0.87;;;0.87;;
53299;SDS011;39187;48.476;8.310;2024-02-16T01:51:23;1.23;;;1.13;;
53299;SDS011;39187;48.476;8.310;2024-02-16T01:53:51;3.20;;;2.20;;
53299;SDS011;39187;48.476;8.310;2024-02-16T01:56:17;2.00;;;1.00;;
53299;SDS011;39187;48.476;8.310;2024-02-16T01:58:46;1.40;;;1.30;;
53299;SDS011;39187;48.476;8.310;2024-02-16T02:01:11;1.20;;;1.10;;
53299;SDS011;39187;48.476;8.310;2024-02-16T02:03:37;1.80;;;1.00;;
53299;SDS011;39187;48.476;8.310;2024-02-16T02:06:02;1.10;;;1.00;;
53299;SDS011;39187;48.476;8.310;2024-02-16T02:08:28;5.00;;;1.00;;
53299;SDS011;39187;48.476;8.310;2024-02-16T02:10:54;0.80;;;0.80;;
53299;SDS011;39187;48.476;8.310;2024-02-16T02:13:19;1.37;;;1.13;;
53299;SDS011;39187;48.476;8.310;2024-02-16T02:15:47;1.73;;;0.80;;
53299;SDS011;39187;48.476;8.310;2024-02-16T02:18:12;1.53;;;1.43;;
53299;SDS011;39187;48.476;8.310;2024-02-16T02:20:38;1.93;;;1.73;;
53299;SDS011;39187;48.476;8.310;2024-02-16T02:23:04;0.80;;;0.80;;
53299;SDS011;39187;48.476;8.310;2024-02-16T02:25:29;1.83;;;0.93;;
53299;SDS011;39187;48.476;8.310;2024-02-16T02:27:55;1.07;;;0.93;;
53299;SDS011;39187;48.476;8.310;2024-02-16T02:30:21;1.03;;;1.03;;
53299;SDS011;39187;48.476;8.310;2024-02-16T02:32:47;1.90;;;1.70;;
53299;SDS011;39187;48.476;8.310;2024-02-16T02:35:14;1.60;;;1.30;;
53299;SDS011;39187;48.476;8.310;2024-02-16T02:37:41;3.93;;;1.10;;
53299;SDS011;39187;48.476;8.310;2024-02-16T02:40:07;2.30;;;1.20;;
53299;SDS011;39187;48.476;8.310;2024-02-16T02:42:34;3.33;;;1.10;;
53299;SDS011;39187;48.476;8.310;2024-02-16T02:45:00;0.80;;;0.80;;
53299;SDS011;39187;48.476;8.310;2024-02-16T02:47:26;1.83;;;0.83;;
53299;SDS011;39187;48.476;8.310;2024-02-16T02:49:52;0.87;;;0.87;;
53299;SDS011;39187;48.476;8.310;2024-02-16T02:52:17;1.20;;;1.07;;
53299;SDS011;39187;48.476;8.310;2024-02-16T02:54:43;1.10;;;1.00;;
53299;SDS011;39187;48.476;8.310;2024-02-16T02:57:09;1.40;;;1.30;;
53299;SDS011;39187;48.476;8.310;2024-02-16T02:59:34;1.13;;;1.03;;
53299;SDS011;39187;48.476;8.310;2024-02-16T03:02:00;1.20;;;1.10;;
53299;SDS011;39187;48.476;8.310;2024-02-16T03:04:25;1.00;;;1.00;;
53299;SDS011;39187;48.476;8.310;2024-02-16T03:06:51;1.20;;;1.10;;
53299;SDS011;39187;48.476;8.310;2024-02-16T03:09:17;1.30;;;1.20;;
53299;SDS011;39187;48.476;8.310;2024-02-16T03:11:43;2.30;;;1.33;;
53299;SDS011;39187;48.476;8.310;2024-02-16T03:14:08;2.20;;;1.30;;
53299;SDS011;39187;48.476;8.310;2024-02-16T03:16:34;2.70;;;0.90;;
53299;SDS011;39187;48.476;8.310;2024-02-16T03:18:59;1.10;;;0.90;;
53299;SDS011;39187;48.476;8.310;2024-02-16T03:21:25;1.03;;;0.97;;
53299;SDS011;39187;48.476;8.310;2024-02-16T03:23:50;1.57;;;0.97;;
53299;SDS011;39187;48.476;8.310;2024-02-16T03:26:16;1.50;;;1.30;;
53299;SDS011;39187;48.476;8.310;2024-02-16T03:28:47;0.90;;;0.90;;
53299;SDS011;39187;48.476;8.310;2024-02-16T03:31:16;1.60;;;1.50;;
53299;SDS011;39187;48.476;8.310;2024-02-16T03:33:42;1.07;;;1.07;;
53299;SDS011;39187;48.476;8.310;2024-02-16T03:36:08;2.00;;;1.63;;
53299;SDS011;39187;48.476;8.310;2024-02-16T03:38:34;1.47;;;1.37;;
53299;SDS011;39187;48.476;8.310;2024-02-16T03:40:59;1.10;;;1.10;;
53299;SDS011;39187;48.476;8.310;2024-02-16T03:43:25;1.47;;;1.10;;
53299;SDS011;39187;48.476;8.310;2024-02-16T03:45:51;1.20;;;1.20;;
53299;SDS011;39187;48.476;8.310;2024-02-16T03:48:16;1.10;;;1.00;;
53299;SDS011;39187;48.476;8.310;2024-02-16T03:50:42;1.03;;;1.03;;
53299;SDS011;39187;48.476;8.310;2024-02-16T03:53:07;1.20;;;1.10;;
53299;SDS011;39187;48.476;8.310;2024-02-16T03:55:33;1.57;;;1.20;;
53299;SDS011;39187;48.476;8.310;2024-02-16T03:58:01;1.43;;;1.07;;
53299;SDS011;39187;48.476;8.310;2024-02-16T04:00:28;1.30;;;1.20;;
53299;SDS011;39187;48.476;8.310;2024-02-16T04:02:53;1.47;;;1.37;;
53299;SDS011;39187;48.476;8.310;2024-02-16T04:05:19;0.83;;;0.83;;
53299;SDS011;39187;48.476;8.310;2024-02-16T04:07:44;1.80;;;1.20;;
53299;SDS011;39187;48.476;8.310;2024-02-16T04:10:09;2.20;;;1.40;;
53299;SDS011;39187;48.476;8.310;2024-02-16T04:12:35;1.60;;;1.47;;
53299;SDS011;39187;48.476;8.310;2024-02-16T04:15:01;1.17;;;1.00;;
53299;SDS011;39187;48.476;8.310;2024-02-16T04:17:27;2.80;;;1.27;;
53299;SDS011;39187;48.476;8.310;2024-02-16T04:19:53;1.50;;;1.40;;
53299;SDS011;39187;48.476;8.310;2024-02-16T04:22:19;1.50;;;1.40;;
53299;SDS011;39187;48.476;8.310;2024-02-16T04:24:44;1.37;;;1.20;;
53299;SDS011;39187;48.476;8.310;2024-02-16T04:27:11;1.30;;;1.20;;
53299;SDS011;39187;48.476;8.310;2024-02-16T04:29:37;2.83;;;1.20;;
53299;SDS011;39187;48.476;8.310;2024-02-16T04:32:02;1.40;;;1.30;;
53299;SDS011;39187;48.476;8.310;2024-02-16T04:34:28;1.63;;;1.53;;
53299;SDS011;39187;48.476;8.310;2024-02-16T04:36:54;2.47;;;1.30;;
53299;SDS011;39187;48.476;8.310;2024-02-16T04:39:20;1.83;;;1.23;;
53299;SDS011;39187;48.476;8.310;2024-02-16T04:41:45;1.20;;;1.10;;
53299;SDS011;39187;48.476;8.310;2024-02-16T04:44:11;1.20;;;1.10;;
53299;SDS011;39187;48.476;8.310;2024-02-16T04:46:38;1.80;;;1.33;;
53299;SDS011;39187;48.476;8.310;2024-02-16T04:49:03;1.27;;;1.17;;
53299;SDS011;39187;48.476;8.310;2024-02-16T04:51:28;1.13;;;1.03;;
53299;SDS011;39187;48.476;8.310;2024-02-16T04:53:54;2.30;;;1.33;;
53299;SDS011;39187;48.476;8.310;2024-02-16T04:56:19;1.27;;;1.17;;
53299;SDS011;39187;48.476;8.310;2024-02-16T04:58:45;1.23;;;1.10;;
53299;SDS011;39187;48.476;8.310;2024-02-16T05:01:12;1.80;;;1.03;;
53299;SDS011;39187;48.476;8.310;2024-02-16T05:03:38;1.83;;;1.63;;
53299;SDS011;39187;48.476;8.310;2024-02-16T05:06:06;1.67;;;1.17;;
53299;SDS011;39187;48.476;8.310;2024-02-16T05:08:31;1.50;;;1.40;;
53299;SDS011;39187;48.476;8.310;2024-02-16T05:10:57;1.20;;;1.20;;
53299;SDS011;39187;48.476;8.310;2024-02-16T05:13:22;1.10;;;0.97;;
53299;SDS011;39187;48.476;8.310;2024-02-16T05:15:48;1.83;;;1.73;;
53299;SDS011;39187;48.476;8.310;2024-02-16T05:18:14;1.10;;;1.00;;
53299;SDS011;39187;48.476;8.310;2024-02-16T05:20:40;1.20;;;1.10;;
53299;SDS011;39187;48.476;8.310;2024-02-16T05:23:05;1.60;;;1.50;;
53299;SDS011;39187;48.476;8.310;2024-02-16T05:25:31;1.40;;;1.30;;
53299;SDS011;39187;48.476;8.310;2024-02-16T05:27:56;4.13;;;1.37;;
53299;SDS011;39187;48.476;8.310;2024-02-16T05:30:23;1.50;;;1.20;;
53299;SDS011;39187;48.476;8.310;2024-02-16T05:32:48;7.50;;;1.60;;
53299;SDS011;39187;48.476;8.310;2024-02-16T05:35:14;2.00;;;0.90;;
53299;SDS011;39187;48.476;8.310;2024-02-16T05:37:41;1.30;;;1.20;;
53299;SDS011;39187;48.476;8.310;2024-02-16T05:40:09;1.17;;;1.07;;
53299;SDS011;39187;48.476;8.310;2024-02-16T05:42:52;2.67;;;1.27;;
53299;SDS011;39187;48.476;8.310;2024-02-16T05:45:19;2.63;;;1.50;;
53299;SDS011;39187;48.476;8.310;2024-02-16T05:47:46;1.20;;;1.10;;
53299;SDS011;39187;48.476;8.310;2024-02-16T05:50:12;1.20;;;1.10;;
53299;SDS011;39187;48.476;8.310;2024-02-16T05:52:38;2.10;;;1.20;;
53299;SDS011;39187;48.476;8.310;2024-02-16T05:55:08;2.30;;;1.27;;
53299;SDS011;39187;48.476;8.310;2024-02-16T05:57:34;2.50;;;1.20;;
53299;SDS011;39187;48.476;8.310;2024-02-16T06:00:00;3.57;;;1.67;;
53299;SDS011;39187;48.476;8.310;2024-02-16T06:02:31;3.53;;;1.93;;
53299;SDS011;39187;48.476;8.310;2024-02-16T06:04:57;10.80;;;1.20;;
53299;SDS011;39187;48.476;8.310;2024-02-16T06:07:23;1.57;;;1.30;;
53299;SDS011;39187;48.476;8.310;2024-02-16T06:09:49;1.67;;;1.33;;
53299;SDS011;39187;48.476;8.310;2024-02-16T06:12:15;1.50;;;1.40;;
53299;SDS011;39187;48.476;8.310;2024-02-16T06:14:41;1.67;;;1.57;;
53299;SDS011;39187;48.476;8.310;2024-02-16T06:17:07;1.80;;;1.30;;
53299;SDS011;39187;48.476;8.310;2024-02-16T06:19:34;1.20;;;1.10;;
53299;SDS011;39187;48.476;8.310;2024-02-16T06:22:01;1.30;;;1.20;;
53299;SDS011;39187;48.476;8.310;2024-02-16T06:24:27;1.73;;;1.30;;
53299;SDS011;39187;48.476;8.310;2024-02-16T06:26:53;3.50;;;1.40;;
53299;SDS011;39187;48.476;8.310;2024-02-16T06:29:20;1.30;;;1.20;;
53299;SDS011;39187;48.476;8.310;2024-02-16T06:31:47;1.40;;;1.30;;
53299;SDS011;39187;48.476;8.310;2024-02-16T06:34:13;3.00;;;1.30;;
53299;SDS011;39187;48.476;8.310;2024-02-16T06:36:40;2.40;;;1.20;;
53299;SDS011;39187;48.476;8.310;2024-02-16T06:39:06;2.40;;;1.60;;
53299;SDS011;39187;48.476;8.310;2024-02-16T06:41:31;1.53;;;1.43;;
53299;SDS011;39187;48.476;8.310;2024-02-16T06:43:57;1.63;;;1.20;;
53299;SDS011;39187;48.476;8.310;2024-02-16T06:46:22;1.73;;;1.50;;
53299;SDS011;39187;48.476;8.310;2024-02-16T06:48:49;4.47;;;1.23;;
53299;SDS011;39187;48.476;8.310;2024-02-16T06:51:15;1.73;;;1.33;;
53299;SDS011;39187;48.476;8.310;2024-02-16T06:53:40;2.20;;;1.73;;
53299;SDS011;39187;48.476;8.310;2024-02-16T06:56:06;1.20;;;1.10;;
53299;SDS011;39187;48.476;8.310;2024-02-16T06:58:32;1.90;;;1.50;;
53299;SDS011;39187;48.476;8.310;2024-02-16T07:00:57;4.23;;;3.00;;
53299;SDS011;39187;48.476;8.310;2024-02-16T07:03:28;1.43;;;1.33;;
53299;SDS011;39187;48.476;8.310;2024-02-16T07:05:53;2.33;;;1.67;;
53299;SDS011;39187;48.476;8.310;2024-02-16T07:08:19;2.17;;;1.67;;
53299;SDS011;39187;48.476;8.310;2024-02-16T07:10:46;2.03;;;1.83;;
53299;SDS011;39187;48.476;8.310;2024-02-16T07:13:12;1.70;;;1.60;;
53299;SDS011;39187;48.476;8.310;2024-02-16T07:15:38;4.03;;;1.80;;
53299;SDS011;39187;48.476;8.310;2024-02-16T07:18:05;1.80;;;1.47;;
53299;SDS011;39187;48.476;8.310;2024-02-16T07:20:30;3.43;;;1.77;;
53299;SDS011;39187;48.476;8.310;2024-02-16T07:22:56;2.30;;;2.10;;
53299;SDS011;39187;48.476;8.310;2024-02-16T07:25:21;2.23;;;1.70;;
53299;SDS011;39187;48.476;8.310;2024-02-16T07:27:47;3.00;;;1.47;;
53299;SDS011;39187;48.476;8.310;2024-02-16T07:30:12;1.10;;;1.10;;
53299;SDS011;39187;48.476;8.310;2024-02-16T07:32:38;1.60;;;1.50;;
53299;SDS011;39187;48.476;8.310;2024-02-16T07:35:04;2.00;;;1.47;;
53299;SDS011;39187;48.476;8.310;2024-02-16T07:37:29;2.03;;;1.60;;
53299;SDS011;39187;48.476;8.310;2024-02-16T07:39:55;5.43;;;1.60;;
53299;SDS011;39187;48.476;8.310;2024-02-16T07:42:21;3.30;;;1.60;;
53299;SDS011;39187;48.476;8.310;2024-02-16T07:44:46;1.00;;;1.00;;
53299;SDS011;39187;48.476;8.310;2024-02-16T07:47:12;3.13;;;1.97;;
53299;SDS011;39187;48.476;8.310;2024-02-16T07:49:38;2.77;;;1.33;;
53299;SDS011;39187;48.476;8.310;2024-02-16T07:52:05;1.70;;;1.53;;
53299;SDS011;39187;48.476;8.310;2024-02-16T07:54:30;2.70;;;1.70;;
53299;SDS011;39187;48.476;8.310;2024-02-16T07:56:56;2.10;;;2.00;;
53299;SDS011;39187;48.476;8.310;2024-02-16T07:59:24;1.63;;;1.53;;
53299;SDS011;39187;48.476;8.310;2024-02-16T08:01:50;4.00;;;1.40;;
53299;SDS011;39187;48.476;8.310;2024-02-16T08:04:16;4.80;;;1.23;;
53299;SDS011;39187;48.476;8.310;2024-02-16T08:06:41;1.87;;;1.77;;
53299;SDS011;39187;48.476;8.310;2024-02-16T08:09:06;4.00;;;1.60;;
53299;SDS011;39187;48.476;8.310;2024-02-16T08:11:32;1.30;;;1.17;;
53299;SDS011;39187;48.476;8.310;2024-02-16T08:13:57;1.30;;;1.13;;
53299;SDS011;39187;48.476;8.310;2024-02-16T08:16:26;1.60;;;1.50;;
53299;SDS011;39187;48.476;8.310;2024-02-16T08:18:52;2.70;;;2.10;;
53299;SDS011;39187;48.476;8.310;2024-02-16T08:21:18;2.30;;;1.50;;
53299;SDS011;39187;48.476;8.310;2024-02-16T08:23:43;1.73;;;1.63;;
53299;SDS011;39187;48.476;8.310;2024-02-16T08:26:09;1.53;;;1.43;;
53299;SDS011;39187;48.476;8.310;2024-02-16T08:28:34;2.40;;;1.70;;
53299;SDS011;39187;48.476;8.310;2024-02-16T08:31:00;2.60;;;1.87;;
53299;SDS011;39187;48.476;8.310;2024-02-16T08:33:25;1.80;;;1.70;;
53299;SDS011;39187;48.476;8.310;2024-02-16T08:35:51;2.33;;;1.80;;
53299;SDS011;39187;48.476;8.310;2024-02-16T08:38:16;2.83;;;1.50;;
53299;SDS011;39187;48.476;8.310;2024-02-16T08:40:42;1.50;;;1.40;;
53299;SDS011;39187;48.476;8.310;2024-02-16T08:43:07;2.33;;;1.43;;
53299;SDS011;39187;48.476;8.310;2024-02-16T08:45:33;2.77;;;1.90;;
53299;SDS011;39187;48.476;8.310;2024-02-16T08:47:59;1.73;;;1.63;;
53299;SDS011;39187;48.476;8.310;2024-02-16T08:50:28;1.47;;;1.20;;
53299;SDS011;39187;48.476;8.310;2024-02-16T08:52:54;5.20;;;1.97;;
53299;SDS011;39187;48.476;8.310;2024-02-16T08:55:20;1.50;;;1.40;;
53299;SDS011;39187;48.476;8.310;2024-02-16T08:57:45;2.30;;;2.10;;
53299;SDS011;39187;48.476;8.310;2024-02-16T09:00:11;1.60;;;1.50;;
53299;SDS011;39187;48.476;8.310;2024-02-16T09:02:37;1.37;;;1.27;;
53299;SDS011;39187;48.476;8.310;2024-02-16T09:05:04;1.43;;;1.23;;
53299;SDS011;39187;48.476;8.310;2024-02-16T09:07:30;1.43;;;1.33;;
53299;SDS011;39187;48.476;8.310;2024-02-16T09:09:55;4.20;;;1.47;;
53299;SDS011;39187;48.476;8.310;2024-02-16T09:12:22;1.70;;;1.60;;
53299;SDS011;39187;48.476;8.310;2024-02-16T09:14:47;2.17;;;1.70;;
53299;SDS011;39187;48.476;8.310;2024-02-16T09:17:13;1.67;;;1.47;;
53299;SDS011;39187;48.476;8.310;2024-02-16T09:19:39;2.30;;;2.10;;
53299;SDS011;39187;48.476;8.310;2024-02-16T09:22:04;7.83;;;1.43;;
53299;SDS011;39187;48.476;8.310;2024-02-16T09:24:31;3.90;;;1.83;;
53299;SDS011;39187;48.476;8.310;2024-02-16T09:26:57;1.80;;;1.47;;
53299;SDS011;39187;48.476;8.310;2024-02-16T09:29:26;2.00;;;1.50;;
53299;SDS011;39187;48.476;8.310;2024-02-16T09:31:51;1.70;;;1.60;;
53299;SDS011;39187;48.476;8.310;2024-02-16T09:34:17;2.60;;;1.50;;
53299;SDS011;39187;48.476;8.310;2024-02-16T09:36:43;1.40;;;1.30;;
53299;SDS011;39187;48.476;8.310;2024-02-16T09:39:08;2.40;;;1.30;;
53299;SDS011;39187;48.476;8.310;2024-02-16T09:41:35;2.63;;;1.87;;
53299;SDS011;39187;48.476;8.310;2024-02-16T09:44:03;2.30;;;2.07;;
53299;SDS011;39187;48.476;8.310;2024-02-16T09:46:30;1.70;;;1.57;;
53299;SDS011;39187;48.476;8.310;2024-02-16T09:48:59;1.63;;;1.53;;
53299;SDS011;39187;48.476;8.310;2024-02-16T09:51:26;1.67;;;1.57;;
53299;SDS011;39187;48.476;8.310;2024-02-16T09:53:53;5.33;;;2.17;;
53299;SDS011;39187;48.476;8.310;2024-02-16T09:56:20;1.80;;;1.70;;
53299;SDS011;39187;48.476;8.310;2024-02-16T09:58:46;3.47;;;1.83;;
53299;SDS011;39187;48.476;8.310;2024-02-16T10:01:21;1.87;;;1.77;;
53299;SDS011;39187;48.476;8.310;2024-02-16T10:03:50;4.27;;;2.10;;
53299;SDS011;39187;48.476;8.310;2024-02-16T10:06:17;3.53;;;2.07;;
53299;SDS011;39187;48.476;8.310;2024-02-16T10:11:18;5.30;;;1.60;;
53299;SDS011;39187;48.476;8.310;2024-02-16T10:14:01;2.20;;;2.10;;
53299;SDS011;39187;48.476;8.310;2024-02-16T10:16:28;3.47;;;1.67;;
53299;SDS011;39187;48.476;8.310;2024-02-16T10:18:54;3.23;;;1.90;;
53299;SDS011;39187;48.476;8.310;2024-02-16T10:21:25;2.03;;;1.90;;
53299;SDS011;39187;48.476;8.310;2024-02-16T10:24:08;2.50;;;2.40;;
53299;SDS011;39187;48.476;8.310;2024-02-16T10:26:37;2.83;;;2.73;;
53299;SDS011;39187;48.476;8.310;2024-02-16T10:29:04;4.10;;;2.80;;
53299;SDS011;39187;48.476;8.310;2024-02-16T10:31:36;5.20;;;2.60;;
53299;SDS011;39187;48.476;8.310;2024-02-16T10:34:03;1.67;;;1.40;;
53299;SDS011;39187;48.476;8.310;2024-02-16T10:36:38;4.20;;;2.00;;
53299;SDS011;39187;48.476;8.310;2024-02-16T10:39:06;3.63;;;1.60;;
53299;SDS011;39187;48.476;8.310;2024-02-16T10:41:34;4.53;;;1.93;;
53299;SDS011;39187;48.476;8.310;2024-02-16T10:44:04;1.93;;;1.83;;
53299;SDS011;39187;48.476;8.310;2024-02-16T10:46:30;2.40;;;1.77;;
53299;SDS011;39187;48.476;8.310;2024-02-16T10:48:56;3.00;;;1.77;;
53299;SDS011;39187;48.476;8.310;2024-02-16T10:51:30;2.73;;;1.87;;
53299;SDS011;39187;48.476;8.310;2024-02-16T10:54:01;5.30;;;1.80;;
53299;SDS011;39187;48.476;8.310;2024-02-16T10:56:33;2.63;;;1.90;;
53299;SDS011;39187;48.476;8.310;2024-02-16T10:59:03;10.50;;;1.60;;
53299;SDS011;39187;48.476;8.310;2024-02-16T11:01:40;2.03;;;1.70;;
53299;SDS011;39187;48.476;8.310;2024-02-16T11:04:07;5.27;;;1.70;;
53299;SDS011;39187;48.476;8.310;2024-02-16T11:06:53;3.80;;;2.83;;
53299;SDS011;39187;48.476;8.310;2024-02-16T11:09:33;6.90;;;2.60;;
53299;SDS011;39187;48.476;8.310;2024-02-16T11:12:03;3.80;;;2.30;;
53299;SDS011;39187;48.476;8.310;2024-02-16T11:14:36;2.40;;;2.00;;
53299;SDS011;39187;48.476;8.310;2024-02-16T11:17:02;2.80;;;1.97;;
53299;SDS011;39187;48.476;8.310;2024-02-16T11:19:34;2.20;;;2.07;;
53299;SDS011;39187;48.476;8.310;2024-02-16T11:22:02;3.30;;;2.10;;
53299;SDS011;39187;48.476;8.310;2024-02-16T11:24:33;2.50;;;2.30;;
53299;SDS011;39187;48.476;8.310;2024-02-16T11:27:07;4.50;;;4.10;;
53299;SDS011;39187;48.476;8.310;2024-02-16T11:29:34;6.87;;;6.20;;
53299;SDS011;39187;48.476;8.310;2024-02-16T11:32:01;2.33;;;2.13;;
53299;SDS011;39187;48.476;8.310;2024-02-16T11:34:29;2.93;;;2.03;;
53299;SDS011;39187;48.476;8.310;2024-02-16T11:36:55;4.07;;;2.60;;
53299;SDS011;39187;48.476;8.310;2024-02-16T11:39:22;2.90;;;2.33;;
53299;SDS011;39187;48.476;8.310;2024-02-16T11:41:48;3.00;;;2.80;;
53299;SDS011;39187;48.476;8.310;2024-02-16T11:44:23;7.63;;;3.10;;
53299;SDS011;39187;48.476;8.310;2024-02-16T11:46:53;4.80;;;2.40;;
53299;SDS011;39187;48.476;8.310;2024-02-16T11:49:19;3.10;;;2.37;;
53299;SDS011;39187;48.476;8.310;2024-02-16T11:51:44;3.70;;;3.40;;
53299;SDS011;39187;48.476;8.310;2024-02-16T11:54:10;3.17;;;2.23;;
53299;SDS011;39187;48.476;8.310;2024-02-16T11:56:37;2.40;;;2.00;;
53299;SDS011;39187;48.476;8.310;2024-02-16T11:59:04;1.70;;;1.60;;
53299;SDS011;39187;48.476;8.310;2024-02-16T12:01:31;2.37;;;1.93;;
53299;SDS011;39187;48.476;8.310;2024-02-16T12:03:59;1.83;;;1.73;;
53299;SDS011;39187;48.476;8.310;2024-02-16T12:06:24;2.70;;;2.00;;
53299;SDS011;39187;48.476;8.310;2024-02-16T12:08:50;4.60;;;2.03;;
53299;SDS011;39187;48.476;8.310;2024-02-16T12:11:19;2.70;;;2.03;;
53299;SDS011;39187;48.476;8.310;2024-02-16T12:13:44;1.63;;;1.53;;
53299;SDS011;39187;48.476;8.310;2024-02-16T12:16:10;2.80;;;2.20;;
53299;SDS011;39187;48.476;8.310;2024-02-16T12:18:36;2.90;;;2.27;;
53299;SDS011;39187;48.476;8.310;2024-02-16T12:21:02;3.30;;;2.17;;
53299;SDS011;39187;48.476;8.310;2024-02-16T12:23:33;3.77;;;1.90;;
53299;SDS011;39187;48.476;8.310;2024-02-16T12:25:59;1.87;;;1.63;;
53299;SDS011;39187;48.476;8.310;2024-02-16T12:28:26;4.40;;;2.10;;
53299;SDS011;39187;48.476;8.310;2024-02-16T12:30:54;3.73;;;2.00;;
53299;SDS011;39187;48.476;8.310;2024-02-16T12:33:20;4.10;;;2.17;;
53299;SDS011;39187;48.476;8.310;2024-02-16T12:35:47;2.70;;;1.70;;
53299;SDS011;39187;48.476;8.310;2024-02-16T12:38:12;2.57;;;2.03;;
53299;SDS011;39187;48.476;8.310;2024-02-16T12:40:38;4.70;;;2.47;;
53299;SDS011;39187;48.476;8.310;2024-02-16T12:43:03;6.87;;;2.37;;
53299;SDS011;39187;48.476;8.310;2024-02-16T12:45:29;2.90;;;2.17;;
53299;SDS011;39187;48.476;8.310;2024-02-16T12:47:56;2.50;;;2.30;;
53299;SDS011;39187;48.476;8.310;2024-02-16T12:50:22;3.00;;;2.10;;
53299;SDS011;39187;48.476;8.310;2024-02-16T12:52:48;3.00;;;2.10;;
53299;SDS011;39187;48.476;8.310;2024-02-16T12:55:13;2.70;;;2.30;;
53299;SDS011;39187;48.476;8.310;2024-02-16T12:57:41;5.50;;;1.90;;
53299;SDS011;39187;48.476;8.310;2024-02-16T13:00:06;5.87;;;2.40;;
53299;SDS011;39187;48.476;8.310;2024-02-16T13:02:32;4.03;;;2.33;;
53299;SDS011;39187;48.476;8.310;2024-02-16T13:04:58;2.67;;;2.40;;
53299;SDS011;39187;48.476;8.310;2024-02-16T13:07:23;3.63;;;2.17;;
53299;SDS011;39187;48.476;8.310;2024-02-16T13:09:50;4.10;;;2.00;;
53299;SDS011;39187;48.476;8.310;2024-02-16T13:12:16;3.17;;;2.60;;
53299;SDS011;39187;48.476;8.310;2024-02-16T13:14:42;3.40;;;2.30;;
53299;SDS011;39187;48.476;8.310;2024-02-16T13:17:08;2.40;;;2.20;;
53299;SDS011;39187;48.476;8.310;2024-02-16T13:19:33;3.03;;;1.97;;
53299;SDS011;39187;48.476;8.310;2024-02-16T13:21:59;1.60;;;1.50;;
53299;SDS011;39187;48.476;8.310;2024-02-16T13:24:24;2.00;;;1.90;;
53299;SDS011;39187;48.476;8.310;2024-02-16T13:26:50;5.03;;;2.80;;
53299;SDS011;39187;48.476;8.310;2024-02-16T13:29:15;1.57;;;1.47;;
53299;SDS011;39187;48.476;8.310;2024-02-16T13:31:41;2.07;;;1.67;;
53299;SDS011;39187;48.476;8.310;2024-02-16T13:34:07;7.23;;;3.00;;
53299;SDS011;39187;48.476;8.310;2024-02-16T13:36:33;4.43;;;2.40;;
53299;SDS011;39187;48.476;8.310;2024-02-16T13:38:58;4.80;;;2.40;;
53299;SDS011;39187;48.476;8.310;2024-02-16T13:41:24;2.50;;;2.40;;
53299;SDS011;39187;48.476;8.310;2024-02-16T13:43:50;2.63;;;2.43;;
53299;SDS011;39187;48.476;8.310;2024-02-16T13:46:16;3.60;;;2.90;;
53299;SDS011;39187;48.476;8.310;2024-02-16T13:48:42;4.43;;;2.30;;
53299;SDS011;39187;48.476;8.310;2024-02-16T13:51:08;2.07;;;1.93;;
53299;SDS011;39187;48.476;8.310;2024-02-16T13:53:34;5.20;;;2.30;;
53299;SDS011;39187;48.476;8.310;2024-02-16T13:56:03;4.33;;;2.50;;
53299;SDS011;39187;48.476;8.310;2024-02-16T13:58:30;2.37;;;2.20;;
53299;SDS011;39187;48.476;8.310;2024-02-16T14:00:56;2.33;;;2.10;;
53299;SDS011;39187;48.476;8.310;2024-02-16T14:03:24;4.60;;;2.63;;
53299;SDS011;39187;48.476;8.310;2024-02-16T14:05:50;3.50;;;2.17;;
53299;SDS011;39187;48.476;8.310;2024-02-16T14:08:17;1.97;;;1.87;;
53299;SDS011;39187;48.476;8.310;2024-02-16T14:10:42;4.30;;;2.07;;
53299;SDS011;39187;48.476;8.310;2024-02-16T14:13:08;2.23;;;1.87;;
53299;SDS011;39187;48.476;8.310;2024-02-16T14:15:34;3.33;;;2.37;;
53299;SDS011;39187;48.476;8.310;2024-02-16T14:18:00;4.20;;;2.53;;
53299;SDS011;39187;48.476;8.310;2024-02-16T14:20:26;2.33;;;2.13;;
53299;SDS011;39187;48.476;8.310;2024-02-16T14:22:51;2.30;;;1.67;;
53299;SDS011;39187;48.476;8.310;2024-02-16T14:25:17;2.60;;;2.33;;
53299;SDS011;39187;48.476;8.310;2024-02-16T14:27:43;4.73;;;2.37;;
53299;SDS011;39187;48.476;8.310;2024-02-16T14:30:10;6.13;;;2.33;;
53299;SDS011;39187;48.476;8.310;2024-02-16T14:32:37;1.90;;;1.80;;
53299;SDS011;39187;48.476;8.310;2024-02-16T14:35:02;3.73;;;2.37;;
53299;SDS011;39187;48.476;8.310;2024-02-16T14:37:30;4.33;;;3.03;;
53299;SDS011;39187;48.476;8.310;2024-02-16T14:39:56;4.83;;;2.90;;
53299;SDS011;39187;48.476;8.310;2024-02-16T14:42:26;3.80;;;2.33;;
53299;SDS011;39187;48.476;8.310;2024-02-16T14:44:52;2.73;;;2.53;;
53299;SDS011;39187;48.476;8.310;2024-02-16T14:47:18;3.37;;;2.73;;